Daihatsumaru — JD2764 — position and weather

sailwx.info

Track history (hours):
 
Tides and Currents Weather Stations Pressure Air Temp Water Temp Dewpoint Dewpoint Depression Visibility Wind Speed Wind Dir Waves Ship Positions

Daihatsumaru

Last reported at 2014-Oct-24 04:24 UTC. Time now 2014-Oct-25 00:49 UTC.
Position N 34°37' E 135°01'.

Length 106 m; draft 4.5 m.

Type: Cargo ship. MMSI: 431000701.

Date/timePositionNaut miles runAvg speedWind from/ knotsBaromVisibWave heightAir tempDewpointWater temp
2014-Oct-24 04:24N 34°37' E 135°01'1113.1
2014-Oct-24 03:33N 34°37' E 135°15'8 8.2
2014-Oct-24 02:33N 34°41' E 135°23'0 0.0
2014-Oct-24 01:32N 34°41' E 135°23'0 0.0
2014-Oct-24 00:26N 34°41' E 135°23'0 0.0
2014-Oct-23 23:32N 34°41' E 135°23'2 1.7
2014-Oct-23 22:33N 34°40' E 135°22'1 0.9
2014-Oct-23 21:32N 34°40' E 135°21'0 0.0
2014-Oct-23 20:26N 34°40' E 135°21'0 0.0
2014-Oct-23 19:26N 34°40' E 135°21'910.3
2014-Oct-23 18:33N 34°35' E 135°11'1615.6
2014-Oct-23 17:33N 34°35' E 134°53'11414.1
2014-Oct-23 09:29N 33°56' E 132°43'2 0.1
2014-Oct-22 15:33N 33°58' E 132°43'11410.9
2014-Oct-22 05:07N 34°35' E 134°53'713.1
2014-Oct-22 04:33N 34°37' E 135°01'1413.6
2014-Oct-22 03:33N 34°38' E 135°18'6 5.5
2014-Oct-22 02:30N 34°41' E 135°23'0 0.0
2014-Oct-22 01:30N 34°41' E 135°23'0 0.0
2014-Oct-22 00:30N 34°41' E 135°23'0 0.0
2014-Oct-21 23:30N 34°41' E 135°23'2 2.1
2014-Oct-21 22:33N 34°40' E 135°21'1 1.1
2014-Oct-21 21:30N 34°40' E 135°20'0 0.0
2014-Oct-21 20:30N 34°40' E 135°20'0 0.0
2014-Oct-21 19:24N 34°40' E 135°20'0 0.0
2014-Oct-21 18:33N 34°40' E 135°20'1010.0
2014-Oct-21 17:33N 34°35' E 135°10'2116.0
2014-Oct-21 16:17N 34°32' E 134°45'6 0.2
2014-Oct-20 04:25N 34°35' E 134°52'1112.2
2014-Oct-20 03:33N 34°36' E 135°04'1514.7
2014-Oct-20 02:33N 34°40' E 135°22'2 1.8
2014-Oct-20 01:32N 34°41' E 135°23'0 0.0
2014-Oct-20 00:32N 34°41' E 135°23'0 0.0
2014-Oct-19 23:32N 34°41' E 135°23'0 0.0
2014-Oct-19 22:32N 34°41' E 135°23'0 0.0
2014-Oct-19 21:32N 34°41' E 135°23'0 0.0
2014-Oct-19 20:26N 34°41' E 135°23'0 0.0
2014-Oct-19 19:32N 34°41' E 135°23'0 0.0
2014-Oct-19 18:26N 34°41' E 135°23'0 0.0
2014-Oct-19 17:32N 34°41' E 135°23'0 0.0
2014-Oct-19 16:20N 34°41' E 135°23'0 0.0
2014-Oct-19 15:32N 34°41' E 135°23'0 0.0
2014-Oct-19 14:32N 34°41' E 135°23'0 0.0
2014-Oct-19 13:32N 34°41' E 135°23'0 0.0
2014-Oct-19 12:26N 34°41' E 135°23'0 0.0
2014-Oct-19 11:26N 34°41' E 135°23'0 0.0
2014-Oct-19 10:26N 34°41' E 135°23'0 0.0
2014-Oct-19 09:14N 34°41' E 135°23'0 0.0
2014-Oct-19 08:32N 34°41' E 135°23'0 0.0
2014-Oct-19 07:32N 34°41' E 135°23'0 0.0
2014-Oct-19 06:32N 34°41' E 135°23'0 0.0
2014-Oct-19 05:32N 34°41' E 135°23'0 0.0
2014-Oct-19 04:32N 34°41' E 135°23'0 0.0
2014-Oct-19 03:32N 34°41' E 135°23'0 0.0
2014-Oct-19 02:32N 34°41' E 135°23'0 0.0
2014-Oct-19 01:26N 34°41' E 135°23'0 0.0
2014-Oct-19 00:32N 34°41' E 135°23'2 2.5
2014-Oct-18 23:33N 34°40' E 135°21'0 0.2
2014-Oct-18 22:22N 34°40' E 135°21'0 0.0
2014-Oct-18 21:28N 34°40' E 135°21'0 0.0
2014-Oct-18 20:28N 34°40' E 135°21'0 0.0
2014-Oct-18 19:32N 34°40' E 135°21'1111.1
2014-Oct-18 18:33N 34°35' E 135°09'1413.9
2014-Oct-18 17:33N 34°34' E 134°52'113 4.5
2014-Oct-17 16:32N 33°58' E 132°42'114 9.9
2014-Oct-17 05:05N 34°35' E 134°52'815.5
2014-Oct-17 04:33N 34°37' E 135°02'1414.4
2014-Oct-17 03:33N 34°39' E 135°19'4 4.1
2014-Oct-17 02:33N 34°41' E 135°23'0 0.0
2014-Oct-17 01:31N 34°41' E 135°23'0 0.0
2014-Oct-17 00:31N 34°41' E 135°23'0 0.0
2014-Oct-16 23:25N 34°41' E 135°23'3 3.0
2014-Oct-16 22:33N 34°40' E 135°21'0 0.0
2014-Oct-16 21:33N 34°40' E 135°21'0 0.0
2014-Oct-16 20:27N 34°40' E 135°21'7 8.1
2014-Oct-16 19:33N 34°35' E 135°14'1414.0
2014-Oct-16 18:33N 34°36' E 134°57'11713.0
2014-Oct-16 09:33N 33°57' E 132°43'3 0.2
2014-Oct-15 16:07N 33°56' E 132°39'12410.7
2014-Oct-15 04:33N 34°37' E 135°01'1514.9
2014-Oct-15 03:33N 34°39' E 135°19'4 3.6
2014-Oct-15 02:24N 34°41' E 135°23'0 0.1
2014-Oct-15 01:30N 34°41' E 135°23'0 0.0
2014-Oct-15 00:24N 34°41' E 135°23'0 0.0
2014-Oct-14 23:30N 34°41' E 135°23'2 2.0
2014-Oct-14 22:33N 34°40' E 135°21'1 0.5
2014-Oct-14 21:15N 34°40' E 135°21'0 0.1
2014-Oct-14 20:21N 34°40' E 135°21'5 6.3
2014-Oct-14 19:33N 34°37' E 135°16'1514.5
2014-Oct-14 18:33N 34°37' E 134°59'13313.3
2014-Oct-14 08:33N 34°08' E 132°21'  
Track history (hours):
 
Tides and Currents Weather Stations Pressure Air Temp Water Temp Dewpoint Dewpoint Depression Visibility Wind Speed Wind Dir Waves Ship Positions

Daihatsumaru

Last reported at 2014-Oct-24 04:24 UTC. Time now 2014-Oct-25 00:49 UTC.
Position N 34°37' E 135°01'.

Length 106 m; draft 4.5 m.

Type: Cargo ship. MMSI: 431000701.

Date/timePositionNaut miles runAvg speedWind from/ knotsBaromVisibWave heightAir tempDewpointWater temp
2014-Oct-24 04:24N 34°37' E 135°01'1113.1
2014-Oct-24 03:33N 34°37' E 135°15'8 8.2
2014-Oct-24 02:33N 34°41' E 135°23'0 0.0
2014-Oct-24 01:32N 34°41' E 135°23'0 0.0
2014-Oct-24 00:26N 34°41' E 135°23'0 0.0
2014-Oct-23 23:32N 34°41' E 135°23'2 1.7
2014-Oct-23 22:33N 34°40' E 135°22'1 0.9
2014-Oct-23 21:32N 34°40' E 135°21'0 0.0
2014-Oct-23 20:26N 34°40' E 135°21'0 0.0
2014-Oct-23 19:26N 34°40' E 135°21'910.3
2014-Oct-23 18:33N 34°35' E 135°11'1615.6
2014-Oct-23 17:33N 34°35' E 134°53'11414.1
2014-Oct-23 09:29N 33°56' E 132°43'2 0.1
2014-Oct-22 15:33N 33°58' E 132°43'11410.9
2014-Oct-22 05:07N 34°35' E 134°53'713.1
2014-Oct-22 04:33N 34°37' E 135°01'1413.6
2014-Oct-22 03:33N 34°38' E 135°18'6 5.5
2014-Oct-22 02:30N 34°41' E 135°23'0 0.0
2014-Oct-22 01:30N 34°41' E 135°23'0 0.0
2014-Oct-22 00:30N 34°41' E 135°23'0 0.0
2014-Oct-21 23:30N 34°41' E 135°23'2 2.1
2014-Oct-21 22:33N 34°40' E 135°21'1 1.1
2014-Oct-21 21:30N 34°40' E 135°20'0 0.0
2014-Oct-21 20:30N 34°40' E 135°20'0 0.0
2014-Oct-21 19:24N 34°40' E 135°20'0 0.0
2014-Oct-21 18:33N 34°40' E 135°20'1010.0
2014-Oct-21 17:33N 34°35' E 135°10'2116.0
2014-Oct-21 16:17N 34°32' E 134°45'6 0.2
2014-Oct-20 04:25N 34°35' E 134°52'1112.2
2014-Oct-20 03:33N 34°36' E 135°04'1514.7
2014-Oct-20 02:33N 34°40' E 135°22'2 1.8
2014-Oct-20 01:32N 34°41' E 135°23'0 0.0
2014-Oct-20 00:32N 34°41' E 135°23'0 0.0
2014-Oct-19 23:32N 34°41' E 135°23'0 0.0
2014-Oct-19 22:32N 34°41' E 135°23'0 0.0
2014-Oct-19 21:32N 34°41' E 135°23'0 0.0
2014-Oct-19 20:26N 34°41' E 135°23'0 0.0
2014-Oct-19 19:32N 34°41' E 135°23'0 0.0
2014-Oct-19 18:26N 34°41' E 135°23'0 0.0
2014-Oct-19 17:32N 34°41' E 135°23'0 0.0
2014-Oct-19 16:20N 34°41' E 135°23'0 0.0
2014-Oct-19 15:32N 34°41' E 135°23'0 0.0
2014-Oct-19 14:32N 34°41' E 135°23'0 0.0
2014-Oct-19 13:32N 34°41' E 135°23'0 0.0
2014-Oct-19 12:26N 34°41' E 135°23'0 0.0
2014-Oct-19 11:26N 34°41' E 135°23'0 0.0
2014-Oct-19 10:26N 34°41' E 135°23'0 0.0
2014-Oct-19 09:14N 34°41' E 135°23'0 0.0
2014-Oct-19 08:32N 34°41' E 135°23'0 0.0
2014-Oct-19 07:32N 34°41' E 135°23'0 0.0
2014-Oct-19 06:32N 34°41' E 135°23'0 0.0
2014-Oct-19 05:32N 34°41' E 135°23'0 0.0
2014-Oct-19 04:32N 34°41' E 135°23'0 0.0
2014-Oct-19 03:32N 34°41' E 135°23'0 0.0
2014-Oct-19 02:32N 34°41' E 135°23'0 0.0
2014-Oct-19 01:26N 34°41' E 135°23'0 0.0
2014-Oct-19 00:32N 34°41' E 135°23'2 2.5
2014-Oct-18 23:33N 34°40' E 135°21'0 0.2
2014-Oct-18 22:22N 34°40' E 135°21'0 0.0
2014-Oct-18 21:28N 34°40' E 135°21'0 0.0
2014-Oct-18 20:28N 34°40' E 135°21'0 0.0
2014-Oct-18 19:32N 34°40' E 135°21'1111.1
2014-Oct-18 18:33N 34°35' E 135°09'1413.9
2014-Oct-18 17:33N 34°34' E 134°52'113 4.5
2014-Oct-17 16:32N 33°58' E 132°42'114 9.9
2014-Oct-17 05:05N 34°35' E 134°52'815.5
2014-Oct-17 04:33N 34°37' E 135°02'1414.4
2014-Oct-17 03:33N 34°39' E 135°19'4 4.1
2014-Oct-17 02:33N 34°41' E 135°23'0 0.0
2014-Oct-17 01:31N 34°41' E 135°23'0 0.0
2014-Oct-17 00:31N 34°41' E 135°23'0 0.0
2014-Oct-16 23:25N 34°41' E 135°23'3 3.0
2014-Oct-16 22:33N 34°40' E 135°21'0 0.0
2014-Oct-16 21:33N 34°40' E 135°21'0 0.0
2014-Oct-16 20:27N 34°40' E 135°21'7 8.1
2014-Oct-16 19:33N 34°35' E 135°14'1414.0
2014-Oct-16 18:33N 34°36' E 134°57'11713.0
2014-Oct-16 09:33N 33°57' E 132°43'3 0.2
2014-Oct-15 16:07N 33°56' E 132°39'12410.7
2014-Oct-15 04:33N 34°37' E 135°01'1514.9
2014-Oct-15 03:33N 34°39' E 135°19'4 3.6
2014-Oct-15 02:24N 34°41' E 135°23'0 0.1
2014-Oct-15 01:30N 34°41' E 135°23'0 0.0
2014-Oct-15 00:24N 34°41' E 135°23'0 0.0
2014-Oct-14 23:30N 34°41' E 135°23'2 2.0
2014-Oct-14 22:33N 34°40' E 135°21'1 0.5
2014-Oct-14 21:15N 34°40' E 135°21'0 0.1
2014-Oct-14 20:21N 34°40' E 135°21'5 6.3
2014-Oct-14 19:33N 34°37' E 135°16'1514.5
2014-Oct-14 18:33N 34°37' E 134°59'13313.3
2014-Oct-14 08:33N 34°08' E 132°21'  

Dump ship's entire track history